Edison, CA (93220)

11:36 PM PST on January 30, 2015 (GMT -0800)
MesoWest | Change Station
CLOSE
Current Station
Personal Weather Station
Location: Edison, CA
Elevation: 563 ft
Nearby Weather Stations

Elev 563 ft 35.35 °N, 118.85 °W | Updated 6 days ago

Partly Cloudy
Partly Cloudy
49 °F
Feels Like 49 °F
N
4
Wind Variable Wind from SE
Gusts 6 mph

Today
High -- | Low -- °F
--% Chance of Precip.
Yesterday
High -- | Low -- °F
Precip. -- in
6:56 AM 5:21 PM
Waxing Gibbous, 88% visible
Pressure 29.91 in
Visibility 3.0 miles
Clouds Clear
Dew Point 49 °F
Humidity 96%
Rainfall -9999.00 in
Snow Depth Not available.
UV 0 out of 12
Pollen 6.70 out of 12
Air Quality Not available.
Flu Activity Not available.
METAR KBFL 310654Z AUTO 09004KT 3SM HZ CLR 11/08 A2991 RMK AO2 SLP126 T01110083

More Conditions Fewer Conditions

Pressure 29.91 in
Visibility 3.0 miles
Clouds Clear
Dew Point 49 °F
Humidity 96%
Rainfall -9999.00 in
Snow Depth Not available.
UV 0 out of 12
Pollen 6.70 out of 12
Air Quality Not available.
Flu Activity Not available.
METAR KBFL 310654Z AUTO 09004KT 3SM HZ CLR 11/08 A2991 RMK AO2 SLP126 T01110083

More Conditions Fewer Conditions

10-Day Weather Forecast

Almanac

Astronomy

Jan. 30, 2015 Rise Set
Actual Time
Civil Twilight
Nautical Twilight
Astronomical Twilight
Moon
Length of Visible Light
Length of Day
Tomorrow will be .
, % of the Moon is Illuminated

Today's Extremes

State Highs State Lows

Community

WunderPhotos

Upload Photos

1,792,014 photos uploaded!

WunderBlogs® & News

Nearby

Air Quality

  Air Quality AQ Index Pollutant
Not available.

Snow Depth

Station Depth Elevation

Earthquake Activity

City Distance Mag. Time & Date
Minimum magnitude displayed is 2.5.

Coastal Water Temperatures

Place Temperature

Nearby Weather Stations